createdAt,value
2023-03-27T00:10:46.037Z,6.22
2023-03-27T00:21:46.446Z,6.12
2023-03-27T00:32:43.121Z,6.32
2023-03-27T00:43:44.613Z,6.22
2023-03-27T00:54:33.086Z,6.32
2023-03-27T01:05:34.899Z,6.22
2023-03-27T01:16:25.704Z,6.22
2023-03-27T01:27:28.037Z,6.32
2023-03-27T01:38:30.459Z,6.22
2023-03-27T01:49:31.646Z,6.12
2023-03-27T02:00:51.098Z,6.22
2023-03-27T02:11:36.048Z,6.22
2023-03-27T02:22:39.213Z,6.32
2023-03-27T02:33:40.350Z,6.42
2023-03-27T02:44:46.813Z,6.52
2023-03-27T02:55:44.633Z,6.61
2023-03-27T03:06:47.455Z,6.61
2023-03-27T03:17:43.312Z,6.61
2023-03-27T03:29:01.393Z,6.91
2023-03-27T03:39:47.536Z,6.91
2023-03-27T03:50:51.891Z,6.91
2023-03-27T04:01:54.921Z,6.91
2023-03-27T04:12:58.618Z,6.52
2023-03-27T04:24:04.280Z,6.52
2023-03-27T04:35:03.684Z,6.32
2023-03-27T04:46:06.068Z,6.32
2023-03-27T04:57:08.245Z,6.42
2023-03-27T05:08:12.748Z,6.52
2023-03-27T05:19:15.844Z,6.42
2023-03-27T05:30:14.678Z,6.42
2023-03-27T05:41:15.644Z,6.52
2023-03-27T05:52:09.368Z,6.52
2023-03-27T06:03:08.489Z,6.61
2023-03-27T06:14:02.077Z,6.42
2023-03-27T06:25:01.401Z,6.61
2023-03-27T06:35:55.629Z,6.91
2023-03-27T06:46:43.085Z,7.10
2023-03-27T06:57:41.593Z,7.30
2023-03-27T07:08:41.612Z,7.30
2023-03-27T07:19:43.112Z,7.49
2023-03-27T07:30:44.587Z,7.69
2023-03-27T07:41:42.500Z,7.69
2023-03-27T07:52:41.172Z,8.28
2023-03-27T08:03:37.892Z,8.86
2023-03-27T08:14:33.980Z,9.65
2023-03-27T08:25:32.963Z,10.53
2023-03-27T08:36:17.913Z,10.92
2023-03-27T08:47:10.450Z,11.60
2023-03-27T08:58:10.613Z,11.41
2023-03-27T09:09:09.782Z,11.21
2023-03-27T09:20:08.445Z,11.41
2023-03-27T09:30:57.302Z,11.80
2023-03-27T09:41:54.566Z,12.38
2023-03-27T09:52:54.822Z,11.99
2023-03-27T10:03:53.299Z,12.58
2023-03-27T10:14:53.099Z,11.80
2023-03-27T10:25:50.982Z,11.31
2023-03-27T10:36:49.994Z,11.31
2023-03-27T10:47:50.611Z,11.31
2023-03-27T10:58:49.655Z,10.72
2023-03-27T11:09:49.413Z,10.82
2023-03-27T11:20:48.924Z,12.58
2023-03-27T11:31:49.744Z,14.73
2023-03-27T11:42:49.480Z,13.36
2023-03-27T11:53:49.138Z,15.32
2023-03-27T12:04:25.641Z,14.44
2023-03-27T12:15:17.618Z,10.82
2023-03-27T12:26:17.377Z,12.29
2023-03-27T12:37:16.416Z,9.94
2023-03-27T12:48:13.969Z,9.94
2023-03-27T12:59:13.047Z,11.60
2023-03-27T13:10:12.252Z,12.09
2023-03-27T13:21:05.445Z,11.50
2023-03-27T13:32:00.584Z,14.05
2023-03-27T13:42:57.193Z,9.74
2023-03-27T13:53:46.491Z,10.72
2023-03-27T14:04:44.137Z,9.84
2023-03-27T14:15:40.285Z,10.53
2023-03-27T14:26:37.607Z,9.84
2023-03-27T14:37:40.002Z,10.62
2023-03-27T14:48:38.260Z,11.50
2023-03-27T14:59:36.960Z,11.70
2023-03-27T15:10:33.187Z,11.41
2023-03-27T15:21:29.726Z,10.33
2023-03-27T15:32:26.763Z,10.62
2023-03-27T15:43:20.438Z,9.55
2023-03-27T15:54:13.031Z,7.49
2023-03-27T16:05:11.780Z,7.30
2023-03-27T16:16:08.627Z,6.91
2023-03-27T16:27:07.278Z,6.42
2023-03-27T16:38:06.393Z,6.32
2023-03-27T16:49:05.581Z,6.12
2023-03-27T17:00:04.936Z,5.83
2023-03-27T17:11:05.201Z,5.83
2023-03-27T17:21:59.158Z,5.34
2023-03-27T17:32:56.982Z,5.05
2023-03-27T17:43:57.108Z,4.17
2023-03-27T17:54:56.048Z,3.88
2023-03-27T18:05:52.269Z,3.87
2023-03-27T18:16:50.784Z,3.97
2023-03-27T18:27:45.001Z,4.07
2023-03-27T18:38:46.007Z,3.88
2023-03-27T18:49:46.690Z,3.68
2023-03-27T19:00:46.399Z,3.68
2023-03-27T19:11:42.656Z,2.70
2023-03-27T19:22:42.319Z,2.31
2023-03-27T19:33:27.218Z,2.02
2023-03-27T19:44:13.876Z,2.02
2023-03-27T19:55:04.983Z,2.02
2023-03-27T20:06:07.425Z,1.92
2023-03-27T20:17:02.722Z,2.11
2023-03-27T20:27:57.038Z,2.41
2023-03-27T20:38:52.137Z,2.41
2023-03-27T20:49:50.275Z,2.41
2023-03-27T21:00:50.526Z,2.41
2023-03-27T21:11:50.228Z,2.21
2023-03-27T21:22:52.872Z,2.31
2023-03-27T21:33:49.721Z,2.41
2023-03-27T21:44:56.565Z,2.60
2023-03-27T21:55:51.471Z,2.51
2023-03-27T22:06:47.547Z,1.82
2023-03-27T22:17:47.818Z,1.82
2023-03-27T22:28:50.856Z,2.31
2023-03-27T22:39:52.359Z,2.51
2023-03-27T22:50:53.923Z,2.21
2023-03-27T23:01:55.879Z,1.72
2023-03-27T23:12:55.855Z,1.82
2023-03-27T23:23:58.901Z,1.82
2023-03-27T23:35:01.790Z,1.33
2023-03-27T23:45:59.428Z,0.74
2023-03-27T23:56:58.044Z,0.84
